Ushibuka, Japan

10:32 PM JST on May 28, 2015 (GMT +0900)
Kagoshima | | Change Station
CLOSE
Current Station
Airport
Location: Kagoshima Airport,
Elevation: 902 ft
Nearby Weather Stations

Elev 902 ft 31.80 °N, 130.72 °E | Updated 1 hour ago

Mostly Cloudy
Mostly Cloudy
68 °F
Feels Like 68 °F
N
7
Wind Variable Wind from SE

Today
High -- | Low -- °F
--% Chance of Precip.
Yesterday
High -- | Low -- °F
Precip. -- in
5:15 AM 7:18 PM
Waxing Gibbous, 76% visible
Pressure 29.80 in
Visibility 6.2 miles
Clouds Few 1500 ft
Mostly Cloudy 5000 ft
Mostly Cloudy 8000 ft
Dew Point 61 °F
Humidity 78%
Rainfall 0.00 in
Snow Depth Not available.
UV 0 out of 12
Pollen Not available.
Air Quality Not available.
Flu Activity Not available.
METAR RJFK 281200Z 14006KT 9999 FEW015 BKN050 BKN080 20/16 Q1009 RMK 1CU015 5SC050 6AC080 A2982 MOD TURB OBS AT 1131Z 25NM SE OF RJFK BTN 13000FT AND 11000FT IN DES B763

More Conditions Fewer Conditions

Pressure 29.80 in
Visibility 6.2 miles
Clouds Few 1500 ft
Mostly Cloudy 5000 ft
Mostly Cloudy 8000 ft
Dew Point 61 °F
Humidity 78%
Rainfall 0.00 in
Snow Depth Not available.
UV 0 out of 12
Pollen Not available.
Air Quality Not available.
Flu Activity Not available.
METAR RJFK 281200Z 14006KT 9999 FEW015 BKN050 BKN080 20/16 Q1009 RMK 1CU015 5SC050 6AC080 A2982 MOD TURB OBS AT 1131Z 25NM SE OF RJFK BTN 13000FT AND 11000FT IN DES B763

More Conditions Fewer Conditions

10-Day Weather Forecast

Almanac

Astronomy

May. 28, 2015 Rise Set
Actual Time
Civil Twilight
Nautical Twilight
Astronomical Twilight
Moon
Length of Visible Light
Length of Day
Tomorrow will be .
, % of the Moon is Illuminated

Today's Extremes

Country Highs Country Lows

Community

WunderPhotos

Upload Photos

1,824,971 photos uploaded!

WunderBlogs® & News

Nearby

Air Quality

  Air Quality AQ Index Pollutant
Not available.

Snow Depth

Station Depth Elevation

Earthquake Activity

City Distance Mag. Time & Date
Minimum magnitude displayed is 2.5.

Coastal Water Temperatures

Place Temperature

Stations

Nearby Weather Stations

Station Location Temp. Windchill Dew Point Humidity Wind Precip. Elev Updated Type